Time;durP1;ratioP1;P1;durP2;ratioP2;P2;SDS_P1;SDS_P2;PMS_P1;PMS_P2;Temp;Humidity;BMP_temperature;BMP_pressure;BME280_temperature;BME280_humidity;BME280_pressure;Samples;Min_cycle;Max_cycle;Signal;HPM_P1;HPM_P2
2022/04/22 00:00:19;;;;;;;24.80;19.70;;;;;;;9.46;88.21;100431.09;4990641;28;20211;-75
2022/04/22 00:02:46;;;;;;;21.77;17.93;;;;;;;9.46;89.13;100431.97;4977268;28;20204;-75
2022/04/22 00:05:14;;;;;;;20.43;18.27;;;;;;;9.47;89.26;100420.38;4990684;28;20203;-75
2022/04/22 00:07:40;;;;;;;21.10;17.47;;;;;;;9.47;89.07;100428.34;4990017;28;20598;-75
2022/04/22 00:10:09;;;;;;;22.13;18.27;;;;;;;9.46;88.67;100418.66;4990938;28;20527;-75
2022/04/22 00:12:36;;;;;;;20.83;17.87;;;;;;;9.46;88.71;100410.69;4990289;28;20227;-75
2022/04/22 00:15:03;;;;;;;21.70;18.27;;;;;;;9.45;88.87;100413.44;4990470;28;20585;-75
2022/04/22 00:17:29;;;;;;;23.80;18.83;;;;;;;9.44;89.70;100399.31;4990182;28;20228;-76
2022/04/22 00:19:56;;;;;;;25.07;18.33;;;;;;;9.43;89.67;100402.91;4990928;28;20207;-75
2022/04/22 00:22:24;;;;;;;24.10;19.43;;;;;;;9.42;89.56;100389.72;4990805;28;20195;-75
2022/04/22 00:24:50;;;;;;;24.10;18.10;;;;;;;9.41;89.92;100394.16;4981411;28;20421;-75
2022/04/22 00:27:17;;;;;;;29.87;19.90;;;;;;;9.40;89.91;100392.47;4983062;28;20219;-75
2022/04/22 00:29:44;;;;;;;24.03;19.40;;;;;;;9.39;89.62;100388.09;4990028;28;20203;-75
2022/04/22 00:32:10;;;;;;;24.77;19.50;;;;;;;9.37;89.40;100390.84;4990411;28;20227;-76
2022/04/22 00:34:37;;;;;;;22.60;18.30;;;;;;;9.34;89.89;100384.88;4990824;28;20207;-76
2022/04/22 00:37:03;;;;;;;26.27;19.03;;;;;;;9.32;89.51;100389.41;4989915;28;20246;-75
2022/04/22 00:39:31;;;;;;;25.90;18.33;;;;;;;9.29;89.76;100384.31;4990268;28;20208;-75
2022/04/22 00:41:58;;;;;;;21.10;18.20;;;;;;;9.26;89.63;100374.72;4990159;28;20223;-75
2022/04/22 00:44:24;;;;;;;26.00;19.03;;;;;;;9.23;88.86;100374.91;4980938;28;20208;-75
2022/04/22 00:46:51;;;;;;;23.00;18.97;;;;;;;9.21;89.74;100384.78;4989874;28;20214;-74
2022/04/22 00:49:18;;;;;;;24.73;18.63;;;;;;;9.19;88.88;100377.84;4989455;28;20732;-75
2022/04/22 00:51:45;;;;;;;23.07;18.40;;;;;;;9.16;89.03;100384.19;4990019;28;20708;-75
2022/04/22 00:54:12;;;;;;;23.87;19.23;;;;;;;9.16;88.95;100378.03;4989799;28;20231;-75
2022/04/22 00:56:40;;;;;;;26.47;19.83;;;;;;;9.13;89.00;100375.59;4990097;28;20222;-75
2022/04/22 00:59:06;;;;;;;27.30;19.60;;;;;;;9.10;89.49;100375.78;4990147;28;20223;-75
2022/04/22 01:01:34;;;;;;;25.97;19.83;;;;;;;9.08;89.23;100372.34;4989491;28;20214;-75
2022/04/22 01:09:50;;;;;;;25.40;19.53;;;;;;;9.00;89.62;100364.84;4983732;28;20222;-76
2022/04/22 01:12:18;;;;;;;27.53;19.40;;;;;;;8.98;89.92;100356.09;4989496;28;20228;-75
2022/04/22 01:14:45;;;;;;;25.63;19.53;;;;;;;8.96;89.79;100356.19;4981717;28;20247;-75
2022/04/22 01:17:12;;;;;;;29.20;20.57;;;;;;;8.96;90.03;100355.34;4978140;28;20299;-75
2022/04/22 01:19:39;;;;;;;26.63;19.30;;;;;;;8.95;89.60;100351.88;4987958;28;20216;-75
2022/04/22 01:22:07;;;;;;;26.43;20.27;;;;;;;8.94;89.53;100358.13;4989649;28;20206;-76
2022/04/22 01:24:34;;;;;;;25.13;19.67;;;;;;;8.93;89.85;100352.91;4989440;28;20213;-76
2022/04/22 01:27:00;;;;;;;25.27;19.67;;;;;;;8.93;90.19;100347.59;4990093;28;20226;-75
2022/04/22 01:29:27;;;;;;;25.27;18.53;;;;;;;8.92;89.38;100349.41;4989866;28;20207;-76
2022/04/22 01:31:53;;;;;;;27.53;20.20;;;;;;;8.91;90.09;100338.88;4989338;28;20199;-75
2022/04/22 01:34:20;;;;;;;25.57;19.03;;;;;;;8.88;90.41;100337.25;4989382;28;20208;-75
2022/04/22 01:36:46;;;;;;;23.73;19.10;;;;;;;8.87;90.00;100348.81;4988547;28;20208;-75
2022/04/22 01:39:14;;;;;;;23.83;19.20;;;;;;;8.86;90.18;100344.44;4988510;28;20207;-76
2022/04/22 01:41:41;;;;;;;25.50;19.23;;;;;;;8.84;90.12;100343.69;4984742;28;20719;-76
2022/04/22 01:44:08;;;;;;;26.73;19.80;;;;;;;8.82;90.34;100337.59;4989117;28;20207;-75
2022/04/22 01:46:35;;;;;;;24.73;19.70;;;;;;;8.83;89.95;100341.97;4986767;28;20207;-74
2022/04/22 01:49:02;;;;;;;24.83;19.30;;;;;;;8.82;90.70;100336.75;4998961;23;20315;-79
2022/04/22 01:51:28;;;;;;;24.87;18.77;;;;;;;8.80;90.10;100344.81;4992643;28;20207;-78
2022/04/22 01:53:55;;;;;;;23.03;17.50;;;;;;;8.80;90.53;100339.50;4992970;28;20227;-79
2022/04/22 01:56:23;;;;;;;26.90;19.40;;;;;;;8.79;90.65;100342.25;4992449;28;20227;-79
2022/04/22 01:58:49;;;;;;;21.57;17.50;;;;;;;8.78;90.34;100336.06;4991976;28;20688;-78
2022/04/22 02:01:16;;;;;;;26.53;18.50;;;;;;;8.76;90.09;100321.22;4991549;28;20207;-78
2022/04/22 02:03:42;;;;;;;23.23;18.60;;;;;;;8.75;90.35;100323.00;4991931;28;20211;-81
2022/04/22 02:06:09;;;;;;;25.43;18.37;;;;;;;8.75;90.36;100325.66;4991716;28;20705;-78
2022/04/22 02:08:37;;;;;;;25.90;19.20;;;;;;;8.73;90.99;100319.59;4991145;28;20208;-77
2022/04/22 02:11:03;;;;;;;22.20;17.77;;;;;;;8.73;90.20;100322.25;4991766;28;20203;-78
2022/04/22 02:13:32;;;;;;;24.57;18.53;;;;;;;8.73;90.18;100313.44;4984067;28;20235;-79
2022/04/22 02:15:58;;;;;;;26.37;18.03;;;;;;;8.72;90.45;100319.69;4989193;28;20610;-78
2022/04/22 02:18:25;;;;;;;26.03;17.67;;;;;;;8.72;90.92;100320.53;5002772;28;20210;-78
2022/04/22 02:20:53;;;;;;;23.97;18.37;;;;;;;8.72;90.15;100314.38;4991925;28;20204;-78
2022/04/22 02:23:19;;;;;;;23.83;18.00;;;;;;;8.71;91.09;100313.53;4991783;28;20207;-77
2022/04/22 02:25:45;;;;;;;25.47;18.13;;;;;;;8.70;90.66;100309.16;4991327;28;20218;-80
2022/04/22 02:30:57;;;;;;;24.77;18.47;;;;;;;8.69;91.02;100313.63;4991067;28;20218;-82
2022/04/22 02:33:24;;;;;;;21.57;17.40;;;;;;;8.69;91.41;100310.09;4994679;28;20231;-79
2022/04/22 02:35:50;;;;;;;21.73;18.60;;;;;;;8.67;90.81;100312.84;4982574;28;20659;-80
2022/04/22 02:38:17;;;;;;;22.63;17.73;;;;;;;8.68;91.48;100305.75;4976344;28;20219;-78
2022/04/22 02:46:13;;;;;;;21.33;17.80;;;;;;;8.66;91.13;100294.34;4995645;28;20324;-80
2022/04/22 02:48:40;;;;;;;24.03;17.70;;;;;;;8.66;90.96;100294.34;4990476;28;20218;-79
2022/04/22 02:51:06;;;;;;;24.03;18.17;;;;;;;8.67;91.97;100296.91;4994992;28;20207;-78
2022/04/22 02:53:33;;;;;;;21.63;18.23;;;;;;;8.68;91.02;100295.13;4994947;28;20706;-79
2022/04/22 02:55:59;;;;;;;21.10;16.93;;;;;;;8.69;91.10;100299.47;4994791;28;20211;-79
2022/04/22 02:58:26;;;;;;;22.27;17.27;;;;;;;8.69;91.23;100296.84;4994824;28;20210;-81
2022/04/22 03:00:52;;;;;;;25.77;16.77;;;;;;;8.70;91.04;100290.56;4995709;28;20207;-80
2022/04/22 03:03:20;;;;;;;22.30;16.17;;;;;;;8.68;91.10;100297.78;4994927;28;20581;-79
2022/04/22 03:05:47;;;;;;;22.40;15.87;;;;;;;8.68;91.41;100289.81;4995093;28;20203;-79
2022/04/22 03:08:14;;;;;;;19.60;15.73;;;;;;;8.68;90.91;100281.84;5009452;28;20214;-78
2022/04/22 03:10:40;;;;;;;20.53;16.57;;;;;;;8.66;91.36;100283.75;4994910;28;20211;-78
2022/04/22 03:13:07;;;;;;;17.93;14.97;;;;;;;8.63;90.84;100279.47;4994445;28;20231;-79
2022/04/22 03:15:33;;;;;;;23.47;16.80;;;;;;;8.64;90.97;100280.31;4995200;28;20204;-82
2022/04/22 03:18:00;;;;;;;18.27;15.03;;;;;;;8.63;91.22;100282.13;4994691;28;20322;-79
2022/04/22 03:20:28;;;;;;;16.60;14.80;;;;;;;8.62;90.93;100275.09;4991777;28;20208;-79
2022/04/22 03:22:55;;;;;;;19.23;14.93;;;;;;;8.61;91.16;100281.34;4986274;28;20204;-79
2022/04/22 03:25:21;;;;;;;17.23;13.73;;;;;;;8.60;90.86;100284.97;4991603;28;20730;-79
2022/04/22 03:27:48;;;;;;;17.90;14.97;;;;;;;8.60;90.33;100281.44;4989633;28;20237;-79
2022/04/22 03:30:14;;;;;;;16.97;15.07;;;;;;;8.58;91.38;100284.22;4986119;28;20573;-81
2022/04/22 03:32:41;;;;;;;20.10;14.07;;;;;;;8.59;90.73;100287.72;4982759;28;20315;-80
2022/04/22 03:35:08;;;;;;;17.97;15.23;;;;;;;8.56;90.62;100279.94;4982105;28;20212;-80
2022/04/22 03:37:36;;;;;;;18.37;14.60;;;;;;;8.55;91.07;100273.78;4988728;28;20238;-79
2022/04/22 03:40:03;;;;;;;19.97;15.27;;;;;;;8.52;90.76;100270.47;4994171;28;20203;-80
2022/04/22 03:42:30;;;;;;;19.73;14.50;;;;;;;8.50;90.27;100262.59;4982160;28;20207;-80
2022/04/22 03:44:56;;;;;;;20.40;14.87;;;;;;;8.48;90.85;100269.78;4988876;28;20207;-82
2022/04/22 03:47:23;;;;;;;17.23;13.80;;;;;;;8.46;90.42;100263.72;4977189;28;20255;-79
2022/04/22 03:49:50;;;;;;;15.87;12.33;;;;;;;8.44;90.25;100257.66;4977010;28;20236;-82
2022/04/22 03:52:17;;;;;;;15.90;12.97;;;;;;;8.43;90.52;100265.69;4980126;28;20268;-80
2022/04/22 03:54:45;;;;;;;14.10;12.33;;;;;;;8.41;90.07;100257.00;4981560;28;20228;-79
2022/04/22 03:59:55;;;;;;;11.70;10.10;;;;;;;8.34;90.07;100270.63;4991185;28;20626;-81
2022/04/22 04:02:22;;;;;;;9.77;8.33;;;;;;;8.31;89.20;100270.78;4988146;28;20207;-78
2022/04/22 04:04:48;;;;;;;9.70;8.00;;;;;;;8.28;89.43;100270.09;4992763;28;20542;-78
2022/04/22 04:07:15;;;;;;;8.83;6.80;;;;;;;8.26;89.49;100279.94;4976968;28;20314;-80
2022/04/22 04:17:55;;;;;;;8.53;5.60;;;;;;;8.12;88.41;100278.13;4983824;28;20815;-78
2022/04/22 04:23:18;;;;;;;6.73;5.07;;;;;;;8.07;87.76;100260.75;4989256;28;20235;-81
2022/04/22 04:25:46;;;;;;;6.93;4.67;;;;;;;8.05;87.79;100276.78;4989584;28;20251;-81
2022/04/22 04:28:15;;;;;;;6.97;4.77;;;;;;;8.00;87.01;100276.19;4982597;28;20208;-78
2022/04/22 04:30:43;;;;;;;5.37;4.50;;;;;;;7.98;86.44;100280.72;4985655;28;20698;-80
2022/04/22 04:33:10;;;;;;;6.57;4.40;;;;;;;7.95;86.28;100280.91;4988417;28;20242;-80
2022/04/22 04:35:38;;;;;;;5.03;3.67;;;;;;;7.92;85.83;100281.94;4989847;28;20233;-78
2022/04/22 04:38:05;;;;;;;4.60;3.70;;;;;;;7.90;85.58;100277.66;4982976;28;20314;-80
2022/04/22 04:40:33;;;;;;;5.77;4.33;;;;;;;7.89;86.19;100289.22;4983216;28;20206;-78
2022/04/22 04:43:00;;;;;;;4.47;3.80;;;;;;;7.87;84.85;100277.88;4988078;28;21068;-80
2022/04/22 04:45:28;;;;;;;5.57;3.70;;;;;;;7.85;84.92;100283.25;4979735;28;20211;-78
2022/04/22 04:47:55;;;;;;;7.00;4.20;;;;;;;7.87;85.33;100277.88;4981003;28;20232;-79
2022/04/22 04:50:22;;;;;;;5.23;4.10;;;;;;;7.86;84.93;100284.97;4979941;28;20852;-81
2022/04/22 04:52:48;;;;;;;5.97;4.23;;;;;;;7.85;84.41;100270.00;4986916;28;20207;-79
2022/04/22 04:55:15;;;;;;;6.20;4.30;;;;;;;7.86;84.08;100268.19;4988330;28;20282;-79
2022/04/22 04:57:42;;;;;;;10.40;3.93;;;;;;;7.86;84.41;100270.84;4978436;28;20786;-80
2022/04/22 05:00:10;;;;;;;6.20;3.73;;;;;;;7.85;84.00;100261.19;4981527;28;20212;-79
2022/04/22 05:02:39;;;;;;;5.20;4.00;;;;;;;7.84;84.12;100262.97;4985894;28;20212;-79
2022/04/22 05:05:09;;;;;;;4.37;3.77;;;;;;;7.84;83.61;100262.97;4986962;28;20211;-78
2022/04/22 05:07:46;;;;;;;6.30;4.20;;;;;;;7.86;83.79;100260.25;4987667;28;20310;-80
2022/04/22 05:10:12;;;;;;;5.53;3.87;;;;;;;7.85;83.22;100256.75;4982326;28;20200;-79
2022/04/22 05:12:39;;;;;;;5.63;4.30;;;;;;;7.85;83.17;100262.03;4992549;28;20208;-79
2022/04/22 05:15:08;;;;;;;7.70;4.13;;;;;;;7.86;83.75;100255.81;4985203;28;20242;-81
2022/04/22 05:17:34;;;;;;;4.30;3.67;;;;;;;7.88;83.78;100253.06;4991026;28;20235;-79
2022/04/22 05:20:02;;;;;;;5.57;3.83;;;;;;;7.89;83.29;100255.59;4986049;28;20220;-80
2022/04/22 05:22:29;;;;;;;7.40;4.33;;;;;;;7.91;83.45;100256.38;4980655;28;20658;-80
2022/04/22 05:24:56;;;;;;;5.93;4.03;;;;;;;7.93;83.45;100250.97;5005308;28;20195;-79
2022/04/22 05:27:22;;;;;;;6.97;4.47;;;;;;;7.95;83.31;100254.38;4992398;28;20590;-83
2022/04/22 05:32:38;;;;;;;5.67;4.50;;;;;;;7.99;82.68;100250.63;4975590;28;20226;-79
2022/04/22 05:35:07;;;;;;;6.43;3.80;;;;;;;8.01;82.34;100251.38;4993344;28;20238;-79
2022/04/22 05:37:48;;;;;;;8.73;4.00;;;;;;;8.01;81.94;100249.59;4992746;28;20267;-79
2022/04/22 05:40:17;;;;;;;6.27;3.70;;;;;;;8.00;82.46;100252.34;4993080;28;20194;-82
2022/04/22 05:42:44;;;;;;;4.93;3.60;;;;;;;7.98;81.47;100255.06;4993025;28;20776;-79
2022/04/22 05:45:12;;;;;;;5.70;3.77;;;;;;;7.96;81.15;100262.25;4991852;28;20207;-79
2022/04/22 05:47:38;;;;;;;6.93;4.10;;;;;;;7.96;80.99;100266.72;4991572;28;20235;-79
2022/04/22 05:50:08;;;;;;;6.43;4.07;;;;;;;7.96;80.77;100264.06;4992185;28;20219;-79
2022/04/22 05:52:37;;;;;;;5.37;3.80;;;;;;;7.96;81.50;100266.72;4992590;28;20215;-79
2022/04/22 05:55:05;;;;;;;7.03;4.50;;;;;;;7.97;81.23;100271.91;4991720;28;20235;-79
2022/04/22 05:57:32;;;;;;;5.97;4.13;;;;;;;7.98;81.02;100263.03;4991947;28;20257;-79
2022/04/22 05:59:59;;;;;;;7.03;4.07;;;;;;;8.00;80.41;100260.28;4992193;28;20226;-80
2022/04/22 06:02:26;;;;;;;6.63;3.77;;;;;;;8.01;81.11;100248.72;4992022;28;20211;-80
2022/04/22 06:04:53;;;;;;;5.50;3.67;;;;;;;8.05;80.63;100263.53;4991705;28;20254;-80
2022/04/22 06:07:21;;;;;;;5.50;3.47;;;;;;;8.07;80.74;100258.09;4991670;28;20234;-79
2022/04/22 06:12:35;;;;;;;5.07;3.53;;;;;;;8.10;80.50;100266.75;4991125;28;20198;-79
2022/04/22 06:15:04;;;;;;;5.83;3.63;;;;;;;8.11;80.56;100257.84;4992244;28;20787;-79
2022/04/22 06:17:31;;;;;;;4.63;3.43;;;;;;;8.14;80.43;100264.75;4991428;28;20231;-79
2022/04/22 06:19:58;;;;;;;6.57;4.30;;;;;;;8.15;79.36;100262.03;4992131;28;20205;-80
2022/04/22 06:22:26;;;;;;;5.67;4.43;;;;;;;8.17;79.46;100265.44;4991920;28;20214;-80
2022/04/22 06:24:53;;;;;;;4.63;3.53;;;;;;;8.18;79.65;100264.50;4992593;28;20359;-79
2022/04/22 06:27:24;;;;;;;6.10;4.00;;;;;;;8.18;79.88;100259.19;4991289;28;20232;-79
2022/04/22 06:29:51;;;;;;;5.10;3.93;;;;;;;8.19;79.36;100258.25;4991811;28;20208;-81
2022/04/22 06:32:18;;;;;;;5.73;4.23;;;;;;;8.21;79.28;100256.38;4999124;28;20214;-81
2022/04/22 06:34:47;;;;;;;5.13;4.07;;;;;;;8.22;79.69;100255.41;5005135;28;20237;-81
2022/04/22 06:37:13;;;;;;;4.97;4.17;;;;;;;8.23;79.52;100253.63;4998424;28;20228;-80
2022/04/22 06:48:01;;;;;;;5.43;4.40;;;;;;;8.29;79.34;100250.59;4975380;28;20235;-81
2022/04/22 06:50:28;;;;;;;4.60;4.10;;;;;;;8.29;79.34;100255.88;4981671;28;20220;-80
2022/04/22 06:52:55;;;;;;;6.70;4.50;;;;;;;8.32;78.61;100253.09;4975975;28;20215;-79
2022/04/22 06:55:24;;;;;;;6.70;4.33;;;;;;;8.37;79.28;100255.47;4977846;28;20235;-79
2022/04/22 06:57:51;;;;;;;6.23;4.30;;;;;;;8.41;78.60;100246.38;4978854;28;20263;-81
2022/04/22 07:00:18;;;;;;;6.47;4.00;;;;;;;8.45;78.47;100248.75;4971217;28;20212;-79
2022/04/22 07:02:46;;;;;;;5.23;3.93;;;;;;;8.54;78.58;100247.34;4971100;28;20212;-80
2022/04/22 07:05:13;;;;;;;5.90;4.50;;;;;;;8.59;77.78;100250.56;4971886;28;20223;-80
2022/04/22 07:07:40;;;;;;;8.20;4.60;;;;;;;8.60;77.61;100241.63;4970924;28;20232;-81
2022/04/22 07:10:08;;;;;;;6.47;4.03;;;;;;;8.61;77.09;100243.34;4971483;28;20216;-79
2022/04/22 07:12:36;;;;;;;5.13;3.83;;;;;;;8.65;77.22;100244.88;4978397;28;20203;-81
2022/04/22 07:15:04;;;;;;;10.07;4.43;;;;;;;8.66;77.04;100242.13;4990841;28;20227;-79
2022/04/22 07:17:33;;;;;;;4.70;3.90;;;;;;;8.67;76.13;100240.31;4990217;28;20246;-81
2022/04/22 07:20:01;;;;;;;6.57;4.60;;;;;;;8.68;76.51;100245.53;4990664;28;20275;-79
2022/04/22 07:22:28;;;;;;;6.73;4.50;;;;;;;8.71;76.59;100244.50;4991166;28;20208;-79
2022/04/22 07:24:56;;;;;;;8.23;4.60;;;;;;;8.76;76.45;100241.56;4994230;28;20188;-79
2022/04/22 07:27:28;;;;;;;9.07;4.17;;;;;;;8.77;75.98;100243.28;4993303;28;20235;-81
2022/04/22 07:29:57;;;;;;;7.30;4.30;;;;;;;8.78;76.55;100251.13;4994072;28;20769;-80
2022/04/22 07:32:24;;;;;;;6.57;4.40;;;;;;;8.82;76.24;100244.66;4993716;28;20670;-79
2022/04/22 07:34:50;;;;;;;7.17;4.53;;;;;;;8.87;75.74;100233.75;4994545;28;20224;-79
2022/04/22 07:37:18;;;;;;;7.23;4.93;;;;;;;8.89;76.72;100232.72;4993463;28;20236;-80
2022/04/22 07:39:45;;;;;;;10.00;4.90;;;;;;;8.91;76.75;100230.81;4993699;28;20208;-79
2022/04/22 07:42:16;;;;;;;6.50;5.00;;;;;;;8.93;75.71;100239.56;4993751;28;20207;-79
2022/04/22 07:47:32;;;;;;;5.30;4.33;;;;;;;8.97;75.34;100234.88;4993293;28;20606;-80
2022/04/22 07:50:00;;;;;;;8.23;5.90;;;;;;;8.98;75.30;100239.25;4993766;28;20646;-79
2022/04/22 07:52:27;;;;;;;7.47;5.20;;;;;;;9.01;75.16;100241.72;4993529;28;20319;-79
2022/04/22 07:54:54;;;;;;;8.07;5.63;;;;;;;9.03;75.44;100238.00;4993440;28;20215;-79
2022/04/22 07:57:21;;;;;;;7.33;5.60;;;;;;;9.05;75.00;100230.81;4995115;28;20639;-77
2022/04/22 07:59:49;;;;;;;11.37;5.83;;;;;;;9.07;74.78;100233.38;4994788;28;20320;-77
2022/04/22 08:02:16;;;;;;;8.40;5.70;;;;;;;9.13;75.59;100240.09;4994914;28;20616;-78
2022/04/22 08:04:44;;;;;;;7.77;5.63;;;;;;;9.14;75.39;100239.13;4994698;28;20215;-77
2022/04/22 08:07:11;;;;;;;11.30;6.40;;;;;;;9.16;75.65;100242.53;4994949;28;20239;-77
2022/04/22 08:09:37;;;;;;;7.33;6.10;;;;;;;9.18;75.08;100244.16;4994572;28;20215;-77
2022/04/22 08:12:05;;;;;;;8.10;6.47;;;;;;;9.20;75.57;100247.56;4994726;28;20208;-77
2022/04/22 08:14:32;;;;;;;8.43;7.13;;;;;;;9.25;75.94;100245.47;4994644;28;20227;-77
2022/04/22 08:16:59;;;;;;;8.90;6.50;;;;;;;9.36;76.27;100253.59;4995091;28;20278;-77
2022/04/22 08:19:25;;;;;;;10.30;6.90;;;;;;;9.51;76.29;100245.56;4994745;28;20238;-77
2022/04/22 08:21:53;;;;;;;10.07;7.13;;;;;;;9.59;75.63;100251.25;4994770;28;20216;-77
2022/04/22 08:24:20;;;;;;;10.87;7.17;;;;;;;9.63;74.80;100256.28;4994874;28;20203;-77
2022/04/22 08:26:47;;;;;;;14.30;8.63;;;;;;;9.67;74.30;100249.78;4994055;28;20255;-77
2022/04/22 08:29:14;;;;;;;11.80;7.30;;;;;;;9.72;74.49;100253.00;4994503;28;20254;-78
2022/04/22 08:31:41;;;;;;;12.03;7.80;;;;;;;9.77;74.65;100257.16;4994231;28;20208;-77
2022/04/22 08:34:08;;;;;;;15.23;7.67;;;;;;;9.83;74.34;100248.78;4993288;28;20211;-77
2022/04/22 08:36:34;;;;;;;10.33;7.70;;;;;;;9.87;73.43;100259.09;4993754;28;20230;-78
2022/04/22 08:39:04;;;;;;;12.63;8.03;;;;;;;9.87;73.24;100255.59;4994458;28;20243;-77
2022/04/22 08:41:33;;;;;;;12.83;8.30;;;;;;;9.90;73.33;100261.56;4997658;28;20199;-77
2022/04/22 08:44:00;;;;;;;14.87;7.70;;;;;;;9.94;73.31;100254.22;4994019;28;20302;-77
2022/04/22 08:51:56;;;;;;;11.00;6.83;;;;;;;10.03;72.97;100248.31;4994156;28;20191;-77
2022/04/22 08:54:28;;;;;;;11.80;7.77;;;;;;;10.04;72.67;100242.00;4994210;28;20227;-78
2022/04/22 08:56:55;;;;;;;10.40;7.77;;;;;;;10.10;73.21;100238.94;4993318;28;20224;-77
2022/04/22 08:59:23;;;;;;;11.57;7.60;;;;;;;10.19;73.18;100241.03;4988450;28;20212;-77
2022/04/22 09:01:49;;;;;;;9.93;6.97;;;;;;;10.26;72.54;100250.28;4990930;28;20212;-77
2022/04/22 09:04:16;;;;;;;11.93;6.93;;;;;;;10.30;72.09;100253.59;4989910;28;20215;-77
2022/04/22 09:06:45;;;;;;;14.20;7.53;;;;;;;10.36;71.73;100247.84;4990074;28;20603;-77
2022/04/22 09:09:13;;;;;;;8.67;7.57;;;;;;;10.39;71.87;100251.13;4993915;28;20213;-77
2022/04/22 09:11:43;;;;;;;8.13;7.27;;;;;;;10.45;71.74;100249.88;4993350;28;20215;-77
2022/04/22 09:14:10;;;;;;;9.13;7.57;;;;;;;10.50;71.79;100238.91;4993741;28;20602;-77
2022/04/22 09:16:38;;;;;;;8.73;7.30;;;;;;;10.53;71.00;100244.88;4993071;28;20235;-78
2022/04/22 09:19:04;;;;;;;10.67;7.13;;;;;;;10.58;71.08;100245.38;4991719;28;20222;-78
2022/04/22 09:21:31;;;;;;;10.63;7.20;;;;;;;10.66;71.01;100231.53;4991889;28;20211;-78
2022/04/22 09:24:10;;;;;;;12.93;8.00;;;;;;;10.82;71.21;100232.16;4991730;28;20205;-76
2022/04/22 09:26:36;;;;;;;10.03;7.57;;;;;;;10.96;70.79;100226.69;4988458;28;20235;-78
2022/04/22 09:29:06;;;;;;;9.23;7.20;;;;;;;11.05;69.40;100218.06;4990840;28;20208;-77
2022/04/22 09:31:47;;;;;;;8.40;6.77;;;;;;;11.12;68.66;100224.63;4993822;28;20208;-77
2022/04/22 09:34:14;;;;;;;10.47;7.93;;;;;;;11.18;68.30;100219.81;4990417;28;20214;-77
2022/04/22 09:44:56;;;;;;;9.13;7.90;;;;;;;11.39;67.90;100221.78;4994237;28;20234;-77
2022/04/22 09:47:26;;;;;;;11.20;8.27;;;;;;;11.39;67.67;100220.94;4993077;28;20239;-77
2022/04/22 09:49:53;;;;;;;10.33;8.77;;;;;;;11.38;67.37;100212.06;4994404;28;20254;-77
2022/04/22 09:52:26;;;;;;;10.87;8.63;;;;;;;11.38;67.31;100220.06;4993860;28;20211;-78
2022/04/22 09:54:57;;;;;;;13.00;8.67;;;;;;;11.42;67.11;100215.38;4994009;28;20223;-78
2022/04/22 09:57:24;;;;;;;15.60;9.30;;;;;;;11.53;67.89;100218.09;4993352;28;20259;-79
2022/04/22 09:59:52;;;;;;;10.03;8.67;;;;;;;11.67;67.53;100215.25;4982565;28;20220;-78
2022/04/22 10:02:24;;;;;;;10.93;8.50;;;;;;;11.73;67.01;100214.78;4989401;28;20198;-77
2022/04/22 10:04:53;;;;;;;10.60;7.60;;;;;;;11.78;67.08;100223.34;4984870;28;20216;-77
2022/04/22 10:07:19;;;;;;;10.00;8.60;;;;;;;11.82;66.84;100206.13;4982509;28;20233;-77
2022/04/22 10:09:46;;;;;;;11.33;9.13;;;;;;;11.85;66.03;100214.84;4993567;28;20215;-78
2022/04/22 10:12:16;;;;;;;11.30;8.43;;;;;;;11.88;65.89;100214.63;4992822;28;20699;-78
2022/04/22 10:14:44;;;;;;;12.27;8.90;;;;;;;11.90;65.65;100212.69;4983360;28;20668;-78
2022/04/22 10:17:12;;;;;;;12.43;9.90;;;;;;;11.93;65.87;100220.47;4989292;28;20305;-77
2022/04/22 10:19:42;;;;;;;11.67;9.97;;;;;;;11.95;65.98;100213.22;4988085;28;20564;-77
2022/04/22 10:22:11;;;;;;;12.03;10.57;;;;;;;12.01;66.35;100216.25;4992731;28;20209;-78
2022/04/22 10:24:38;;;;;;;12.83;10.00;;;;;;;12.02;65.86;100212.59;4993065;28;20210;-78
2022/04/22 10:27:07;;;;;;;12.33;10.57;;;;;;;12.01;65.74;100210.91;4990180;28;20237;-78
2022/04/22 10:29:35;;;;;;;12.70;11.40;;;;;;;12.02;65.60;100209.94;4987792;28;20202;-78
2022/04/22 10:32:04;;;;;;;13.40;12.00;;;;;;;12.03;65.36;100200.97;4987846;28;20218;-77
2022/04/22 10:34:42;;;;;;;16.30;12.60;;;;;;;12.08;65.72;100212.16;4988404;28;20212;-77
2022/04/22 10:37:18;;;;;;;17.17;12.57;;;;;;;12.11;65.69;100206.59;4990386;28;20298;-77
2022/04/22 10:39:51;;;;;;;18.63;12.53;;;;;;;12.12;65.60;100207.44;4991880;28;20241;-78
2022/04/22 10:42:18;;;;;;;18.20;12.47;;;;;;;12.13;65.46;100206.47;4986493;28;20203;-77
2022/04/22 10:47:43;;;;;;;14.63;12.97;;;;;;;12.17;65.48;100191.94;4988053;28;20249;-77
2022/04/22 10:50:35;;;;;;;19.47;13.80;;;;;;;12.16;65.63;100200.91;4988216;28;20216;-77
2022/04/22 10:53:03;;;;;;;14.70;13.13;;;;;;;12.14;65.54;100200.16;4984256;28;20294;-77
2022/04/22 10:55:35;;;;;;;16.60;12.93;;;;;;;12.12;65.66;100188.75;4991142;28;20231;-77
2022/04/22 10:58:21;;;;;;;19.97;14.83;;;;;;;12.14;65.93;100185.00;4984951;28;20235;-77
2022/04/22 11:00:49;;;;;;;28.73;15.83;;;;;;;12.22;66.49;100184.38;4988006;28;20293;-77
2022/04/22 11:03:18;;;;;;;17.30;15.57;;;;;;;12.29;66.58;100180.28;4992293;28;20636;-78
2022/04/22 11:05:50;;;;;;;19.30;15.53;;;;;;;12.32;66.07;100180.06;4984496;28;20204;-77
2022/04/22 11:08:25;;;;;;;17.60;14.83;;;;;;;12.34;66.18;100170.09;4992112;28;20608;-77
2022/04/22 11:11:17;;;;;;;19.83;16.27;;;;;;;12.37;66.08;100166.31;4993574;28;20210;-78
2022/04/22 11:13:45;;;;;;;18.73;16.70;;;;;;;12.39;66.33;100175.91;4996168;28;20732;-77
2022/04/22 11:16:23;;;;;;;22.83;16.80;;;;;;;12.40;65.82;100169.59;4995398;28;20291;-77
2022/04/22 11:19:11;;;;;;;18.83;16.27;;;;;;;12.44;66.16;100163.06;4990232;28;20206;-78
2022/04/22 11:21:42;;;;;;;20.17;15.90;;;;;;;12.48;66.36;100169.00;4996685;28;20211;-79
2022/04/22 11:24:14;;;;;;;17.50;15.63;;;;;;;12.53;66.09;100166.84;4987185;28;20294;-77
2022/04/22 11:26:41;;;;;;;18.90;16.93;;;;;;;12.59;66.48;100158.31;4990136;28;20283;-78
2022/04/22 11:29:08;;;;;;;19.07;16.07;;;;;;;12.65;66.12;100157.00;4990404;28;20210;-77
2022/04/22 11:31:36;;;;;;;19.90;16.33;;;;;;;12.71;66.01;100151.16;4987193;28;20207;-78
2022/04/22 11:34:06;;;;;;;19.27;16.67;;;;;;;12.79;66.50;100149.56;4991113;28;20240;-78
2022/04/22 11:36:45;;;;;;;19.47;16.60;;;;;;;12.90;65.95;100151.34;4991635;28;20286;-77
2022/04/22 11:39:17;;;;;;;19.93;16.33;;;;;;;12.95;65.24;100153.66;4995853;28;20207;-77
2022/04/22 11:41:57;;;;;;;17.73;15.80;;;;;;;12.99;65.14;100147.94;4998509;28;20229;-78
2022/04/22 11:44:24;;;;;;;17.63;15.50;;;;;;;12.99;64.85;100142.59;4990270;28;20576;-77
2022/04/22 11:46:51;;;;;;;17.83;15.60;;;;;;;13.03;64.68;100145.88;4993295;28;20724;-77
2022/04/22 11:49:18;;;;;;;17.70;15.00;;;;;;;13.09;64.92;100143.53;4995216;28;20219;-77
2022/04/22 11:51:46;;;;;;;17.40;15.60;;;;;;;13.15;65.03;100137.75;4992128;28;20207;-77
2022/04/22 11:54:21;;;;;;;19.30;15.67;;;;;;;13.24;65.47;100143.31;4999624;28;20287;-77
2022/04/22 11:56:48;;;;;;;15.93;14.23;;;;;;;13.31;65.43;100144.50;4995589;28;20235;-77
2022/04/22 11:59:15;;;;;;;16.93;13.90;;;;;;;13.38;64.89;100137.66;4995328;28;20203;-77
2022/04/22 12:10:27;;;;;;;16.80;14.57;;;;;;;13.80;64.08;100128.69;4903184;29;20211;-77
2022/04/22 12:12:56;;;;;;;15.97;13.93;;;;;;;13.89;64.60;100132.44;4909493;29;20206;-77
2022/04/22 12:15:24;;;;;;;15.07;13.43;;;;;;;13.97;63.84;100138.00;4940841;28;20243;-77
2022/04/22 12:17:50;;;;;;;17.47;13.60;;;;;;;14.07;63.49;100127.31;4994291;28;20264;-77
2022/04/22 12:20:17;;;;;;;14.13;12.40;;;;;;;14.17;63.27;100125.53;4994563;28;20214;-77
2022/04/22 12:22:48;;;;;;;14.23;12.10;;;;;;;14.25;62.80;100128.41;4994531;28;20215;-77
2022/04/22 12:25:16;;;;;;;16.87;12.60;;;;;;;14.30;62.63;100120.84;4989677;28;20274;-77
2022/04/22 12:27:44;;;;;;;13.57;12.20;;;;;;;14.35;62.42;100117.72;4992604;28;20242;-78
2022/04/22 12:30:12;;;;;;;13.70;12.03;;;;;;;14.31;61.61;100108.28;4989537;28;20215;-78
2022/04/22 12:32:40;;;;;;;13.83;12.33;;;;;;;14.28;61.49;100114.75;4992614;28;20834;-78
2022/04/22 12:35:14;;;;;;;13.50;11.90;;;;;;;14.34;62.29;100108.00;4988646;28;20220;-78